Αρχική σελίδα
METAR-TAF:

METAR-TAF

Αεροδρόμια :

Διεθνής Αερολιμένας Λάρνακας

Λάρνακα, Κύπρος

γεωγραφικό πλάτος: 34-53N, γεωγραφικό μήκος: 033-38E, υψόμετρο: 2 μ

Παρών καιρός

Η αναφορά έγινε 23 λεπτά πριν, στις 12:30 UTC
Άνεμος 21 kt από ΝΔ
Θερμοκρασία 29°C
Υγρασία 58%
Πίεση 1012 hPa
Ορατότητα 10 χλμ και άνω
Λίγα νέφη σε ύψος 2500 πόδια

METAR: LCLK 201230Z 22021KT 9999 FEW025 29/20 Q1012 NOSIG

Χρόνος: 15:53 (12:53 UTC)

Πρόγνωση Καιρού

Η αναφορά έγινε 1 ώρα και 23 λεπτά πριν, στις 11:30 UTC
Η πρόγνωση ισχύει από τις 20 στις 12 UTC έως τις 21 στις 12 UTC
Άνεμος 17 kt από Ν/ΝΔ
Ορατότητα 10 χλμ και άνω
Λίγα νέφη σε ύψος 2500 πόδια
Καθιστάμενος
από 20 στις 16 UTC έως τις 20 στις 20 UTC
Άνεμος 8 kt από Δ
Καθιστάμενος
από 21 στις 07 UTC έως τις 21 στις 11 UTC
Άνεμος 18 kt από Ν/ΝΔ

TAF: LCLK 201130Z 2012/2112 21017KT 9999 FEW025 BECMG 2016/2020 27008KT BECMG 2107/2111 21018KT

Μετεωρολογικές αναφορές και προγνώσεις για περισσότερα από 4000 αεροδρόμια (δελτία METAR και TAF).

Οι διαθέσιμοι σταθμοί απεικονίζονται στο χάρτη με κίτρινες και κόκκινες κουκκίδες.

Μετακινήστε το ποντίκι πάνω από τις κουκκίδες για να δείτε το όνομα του σταθμού.

Στη συνέχεια, κάντε κλικ για να δείτε τις μετεωρολογικές αναφορές και τις προγνώσεις καιρού.

Για να αλλάξετε το χάρτη: κάντε κλικ στα πράσινα κουμπιά με τον μαύρο σταυρό για να ζουμάρετε, στο πράσινο κουμπί με την παύλα για να αφαιρέσετε το ζουμ ή στα πράσινα βέλη για να αντιπαραβάλλετε χάρτες.


METAR-TAF: